sensor_id;sensor_type;location;lat;lon;timestamp;temperature;humidity
24518;DHT22;12678;51.336;12.406;2023-06-10T00:00:13;19.70;99.90
24518;DHT22;12678;51.336;12.406;2023-06-10T00:02:40;19.70;99.90
24518;DHT22;12678;51.336;12.406;2023-06-10T00:05:07;19.60;99.90
24518;DHT22;12678;51.336;12.406;2023-06-10T00:07:34;19.70;99.90
24518;DHT22;12678;51.336;12.406;2023-06-10T00:10:06;19.60;99.90
24518;DHT22;12678;51.336;12.406;2023-06-10T00:12:33;19.50;99.90
24518;DHT22;12678;51.336;12.406;2023-06-10T00:15:06;19.50;99.90
24518;DHT22;12678;51.336;12.406;2023-06-10T00:17:32;19.40;99.90
24518;DHT22;12678;51.336;12.406;2023-06-10T00:19:58;19.50;99.90
24518;DHT22;12678;51.336;12.406;2023-06-10T00:22:23;19.50;99.90
24518;DHT22;12678;51.336;12.406;2023-06-10T00:24:55;19.40;99.90
24518;DHT22;12678;51.336;12.406;2023-06-10T00:27:21;19.40;99.90
24518;DHT22;12678;51.336;12.406;2023-06-10T00:29:46;19.30;99.90
24518;DHT22;12678;51.336;12.406;2023-06-10T00:32:12;19.30;99.90
24518;DHT22;12678;51.336;12.406;2023-06-10T00:34:38;19.30;99.90
24518;DHT22;12678;51.336;12.406;2023-06-10T00:37:03;19.30;99.90
24518;DHT22;12678;51.336;12.406;2023-06-10T00:39:29;19.30;99.90
24518;DHT22;12678;51.336;12.406;2023-06-10T00:41:55;19.30;99.90
24518;DHT22;12678;51.336;12.406;2023-06-10T00:44:21;19.20;99.90
24518;DHT22;12678;51.336;12.406;2023-06-10T00:46:47;19.10;99.90
24518;DHT22;12678;51.336;12.406;2023-06-10T00:49:12;19.10;99.90
24518;DHT22;12678;51.336;12.406;2023-06-10T00:51:39;19.10;99.90
24518;DHT22;12678;51.336;12.406;2023-06-10T00:54:05;19.10;99.90
24518;DHT22;12678;51.336;12.406;2023-06-10T00:56:31;19.00;99.90
24518;DHT22;12678;51.336;12.406;2023-06-10T00:58:58;19.00;99.90
24518;DHT22;12678;51.336;12.406;2023-06-10T01:01:24;18.90;99.90
24518;DHT22;12678;51.336;12.406;2023-06-10T01:03:50;18.90;99.90
24518;DHT22;12678;51.336;12.406;2023-06-10T01:06:29;18.80;99.90
24518;DHT22;12678;51.336;12.406;2023-06-10T01:09:13;18.70;99.90
24518;DHT22;12678;51.336;12.406;2023-06-10T01:12:05;18.60;99.90
24518;DHT22;12678;51.336;12.406;2023-06-10T01:14:36;18.70;99.90
24518;DHT22;12678;51.336;12.406;2023-06-10T01:17:02;18.60;99.90
24518;DHT22;12678;51.336;12.406;2023-06-10T01:19:28;18.60;99.90
24518;DHT22;12678;51.336;12.406;2023-06-10T01:21:56;18.60;99.90
24518;DHT22;12678;51.336;12.406;2023-06-10T01:24:26;18.50;99.90
24518;DHT22;12678;51.336;12.406;2023-06-10T01:26:54;18.40;99.90
24518;DHT22;12678;51.336;12.406;2023-06-10T01:29:48;18.40;99.90
24518;DHT22;12678;51.336;12.406;2023-06-10T01:32:33;18.40;99.90
24518;DHT22;12678;51.336;12.406;2023-06-10T01:35:02;18.40;99.90
24518;DHT22;12678;51.336;12.406;2023-06-10T01:37:28;18.30;99.90
24518;DHT22;12678;51.336;12.406;2023-06-10T01:39:59;18.30;99.90
24518;DHT22;12678;51.336;12.406;2023-06-10T01:42:25;18.30;99.90
24518;DHT22;12678;51.336;12.406;2023-06-10T01:44:52;18.30;99.90
24518;DHT22;12678;51.336;12.406;2023-06-10T01:47:18;18.20;99.90
24518;DHT22;12678;51.336;12.406;2023-06-10T01:49:43;18.20;99.90
24518;DHT22;12678;51.336;12.406;2023-06-10T01:52:09;18.20;99.90
24518;DHT22;12678;51.336;12.406;2023-06-10T01:54:35;18.20;99.90
24518;DHT22;12678;51.336;12.406;2023-06-10T01:57:01;18.20;99.90
24518;DHT22;12678;51.336;12.406;2023-06-10T01:59:27;18.20;99.90
24518;DHT22;12678;51.336;12.406;2023-06-10T02:01:52;18.10;99.90
24518;DHT22;12678;51.336;12.406;2023-06-10T02:04:18;18.10;99.90
24518;DHT22;12678;51.336;12.406;2023-06-10T02:06:44;18.10;99.90
24518;DHT22;12678;51.336;12.406;2023-06-10T02:09:10;18.10;99.90
24518;DHT22;12678;51.336;12.406;2023-06-10T02:11:36;18.00;99.90
24518;DHT22;12678;51.336;12.406;2023-06-10T02:14:02;17.90;99.90
24518;DHT22;12678;51.336;12.406;2023-06-10T02:16:27;17.90;99.90
24518;DHT22;12678;51.336;12.406;2023-06-10T02:18:53;17.90;99.90
24518;DHT22;12678;51.336;12.406;2023-06-10T02:21:20;17.90;99.90
24518;DHT22;12678;51.336;12.406;2023-06-10T02:23:46;17.90;99.90
24518;DHT22;12678;51.336;12.406;2023-06-10T02:26:11;17.90;99.90
24518;DHT22;12678;51.336;12.406;2023-06-10T02:28:37;17.90;99.90
24518;DHT22;12678;51.336;12.406;2023-06-10T02:31:02;17.80;99.90
24518;DHT22;12678;51.336;12.406;2023-06-10T02:33:28;17.80;99.90
24518;DHT22;12678;51.336;12.406;2023-06-10T02:35:54;17.70;99.90
24518;DHT22;12678;51.336;12.406;2023-06-10T02:38:20;17.70;99.90
24518;DHT22;12678;51.336;12.406;2023-06-10T02:40:46;17.70;99.90
24518;DHT22;12678;51.336;12.406;2023-06-10T02:43:11;17.70;99.90
24518;DHT22;12678;51.336;12.406;2023-06-10T02:45:37;17.80;99.90
24518;DHT22;12678;51.336;12.406;2023-06-10T02:48:03;17.80;99.90
24518;DHT22;12678;51.336;12.406;2023-06-10T02:50:29;17.80;99.90
24518;DHT22;12678;51.336;12.406;2023-06-10T02:52:54;17.70;99.90
24518;DHT22;12678;51.336;12.406;2023-06-10T02:55:20;17.70;99.90
24518;DHT22;12678;51.336;12.406;2023-06-10T02:57:46;17.70;99.90
24518;DHT22;12678;51.336;12.406;2023-06-10T03:00:12;17.70;99.90
24518;DHT22;12678;51.336;12.406;2023-06-10T03:02:39;17.70;99.90
24518;DHT22;12678;51.336;12.406;2023-06-10T03:05:06;17.60;99.90
24518;DHT22;12678;51.336;12.406;2023-06-10T03:07:36;17.60;99.90
24518;DHT22;12678;51.336;12.406;2023-06-10T03:10:01;17.60;99.90
24518;DHT22;12678;51.336;12.406;2023-06-10T03:12:27;17.60;99.90
24518;DHT22;12678;51.336;12.406;2023-06-10T03:14:53;17.70;99.90
24518;DHT22;12678;51.336;12.406;2023-06-10T03:17:18;17.70;99.90
24518;DHT22;12678;51.336;12.406;2023-06-10T03:19:45;17.70;99.90
24518;DHT22;12678;51.336;12.406;2023-06-10T03:22:16;17.70;99.90
24518;DHT22;12678;51.336;12.406;2023-06-10T03:24:41;17.60;99.90
24518;DHT22;12678;51.336;12.406;2023-06-10T03:27:09;17.60;99.90
24518;DHT22;12678;51.336;12.406;2023-06-10T03:29:36;17.60;99.90
24518;DHT22;12678;51.336;12.406;2023-06-10T03:32:02;17.50;99.90
24518;DHT22;12678;51.336;12.406;2023-06-10T03:34:28;17.50;99.90
24518;DHT22;12678;51.336;12.406;2023-06-10T03:36:56;17.50;99.90
24518;DHT22;12678;51.336;12.406;2023-06-10T03:39:22;17.40;99.90
24518;DHT22;12678;51.336;12.406;2023-06-10T03:41:51;17.50;99.90
24518;DHT22;12678;51.336;12.406;2023-06-10T03:44:17;17.50;99.90
24518;DHT22;12678;51.336;12.406;2023-06-10T03:46:43;17.50;99.90
24518;DHT22;12678;51.336;12.406;2023-06-10T03:49:09;17.50;99.90
24518;DHT22;12678;51.336;12.406;2023-06-10T03:51:36;17.50;99.90
24518;DHT22;12678;51.336;12.406;2023-06-10T03:54:02;17.50;99.90
24518;DHT22;12678;51.336;12.406;2023-06-10T03:56:28;17.40;99.90
24518;DHT22;12678;51.336;12.406;2023-06-10T03:58:54;17.40;99.90
24518;DHT22;12678;51.336;12.406;2023-06-10T04:01:20;17.70;99.90
24518;DHT22;12678;51.336;12.406;2023-06-10T04:03:47;17.80;99.90
24518;DHT22;12678;51.336;12.406;2023-06-10T04:06:14;17.90;99.90
24518;DHT22;12678;51.336;12.406;2023-06-10T04:08:39;17.90;99.90
24518;DHT22;12678;51.336;12.406;2023-06-10T04:11:05;17.90;99.90
24518;DHT22;12678;51.336;12.406;2023-06-10T04:13:31;17.80;99.90
24518;DHT22;12678;51.336;12.406;2023-06-10T04:15:57;17.80;99.90
24518;DHT22;12678;51.336;12.406;2023-06-10T04:18:23;17.90;99.90
24518;DHT22;12678;51.336;12.406;2023-06-10T04:20:49;18.00;99.90
24518;DHT22;12678;51.336;12.406;2023-06-10T04:23:15;18.10;99.90
24518;DHT22;12678;51.336;12.406;2023-06-10T04:25:40;18.10;99.90
24518;DHT22;12678;51.336;12.406;2023-06-10T04:28:06;18.00;99.90
24518;DHT22;12678;51.336;12.406;2023-06-10T04:30:32;18.00;99.90
24518;DHT22;12678;51.336;12.406;2023-06-10T04:32:57;18.10;99.90
24518;DHT22;12678;51.336;12.406;2023-06-10T04:35:23;18.30;99.90
24518;DHT22;12678;51.336;12.406;2023-06-10T04:37:50;18.20;99.90
24518;DHT22;12678;51.336;12.406;2023-06-10T04:40:15;18.20;99.90
24518;DHT22;12678;51.336;12.406;2023-06-10T04:42:41;18.20;99.90
24518;DHT22;12678;51.336;12.406;2023-06-10T04:45:07;18.30;99.90
24518;DHT22;12678;51.336;12.406;2023-06-10T04:47:33;18.30;99.90
24518;DHT22;12678;51.336;12.406;2023-06-10T04:50:03;18.70;99.90
24518;DHT22;12678;51.336;12.406;2023-06-10T04:52:29;19.50;99.90
24518;DHT22;12678;51.336;12.406;2023-06-10T04:54:57;20.30;99.90
24518;DHT22;12678;51.336;12.406;2023-06-10T04:57:23;21.10;99.90
24518;DHT22;12678;51.336;12.406;2023-06-10T04:59:49;21.60;99.90
24518;DHT22;12678;51.336;12.406;2023-06-10T05:02:14;22.00;99.90
24518;DHT22;12678;51.336;12.406;2023-06-10T05:04:40;22.40;99.90
24518;DHT22;12678;51.336;12.406;2023-06-10T05:07:06;22.80;99.90
24518;DHT22;12678;51.336;12.406;2023-06-10T05:09:32;23.30;99.90
24518;DHT22;12678;51.336;12.406;2023-06-10T05:11:58;23.60;99.90
24518;DHT22;12678;51.336;12.406;2023-06-10T05:14:24;23.80;99.90
24518;DHT22;12678;51.336;12.406;2023-06-10T05:16:49;24.10;99.90
24518;DHT22;12678;51.336;12.406;2023-06-10T05:19:15;24.60;99.90
24518;DHT22;12678;51.336;12.406;2023-06-10T05:21:45;24.60;99.90
24518;DHT22;12678;51.336;12.406;2023-06-10T05:24:11;24.40;99.90
24518;DHT22;12678;51.336;12.406;2023-06-10T05:26:36;24.50;99.90
24518;DHT22;12678;51.336;12.406;2023-06-10T05:29:07;24.60;99.90
24518;DHT22;12678;51.336;12.406;2023-06-10T05:31:34;25.00;99.90
24518;DHT22;12678;51.336;12.406;2023-06-10T05:34:00;24.70;99.90
24518;DHT22;12678;51.336;12.406;2023-06-10T05:36:25;24.40;99.90
24518;DHT22;12678;51.336;12.406;2023-06-10T05:38:52;23.90;99.90
24518;DHT22;12678;51.336;12.406;2023-06-10T05:41:17;23.60;99.90
24518;DHT22;12678;51.336;12.406;2023-06-10T05:43:43;23.50;99.90
24518;DHT22;12678;51.336;12.406;2023-06-10T05:46:09;23.70;99.90
24518;DHT22;12678;51.336;12.406;2023-06-10T05:48:34;24.10;99.90
24518;DHT22;12678;51.336;12.406;2023-06-10T05:51:00;24.30;99.90
24518;DHT22;12678;51.336;12.406;2023-06-10T05:53:26;24.50;99.90
24518;DHT22;12678;51.336;12.406;2023-06-10T05:55:52;24.80;99.90
24518;DHT22;12678;51.336;12.406;2023-06-10T05:58:23;25.20;99.90
24518;DHT22;12678;51.336;12.406;2023-06-10T06:00:49;25.10;99.90
24518;DHT22;12678;51.336;12.406;2023-06-10T06:03:14;25.10;99.90
24518;DHT22;12678;51.336;12.406;2023-06-10T06:05:40;25.20;99.90
24518;DHT22;12678;51.336;12.406;2023-06-10T06:08:09;24.80;99.90
24518;DHT22;12678;51.336;12.406;2023-06-10T06:10:35;24.40;99.90
24518;DHT22;12678;51.336;12.406;2023-06-10T06:13:01;24.00;99.90
24518;DHT22;12678;51.336;12.406;2023-06-10T06:15:27;23.80;99.90
24518;DHT22;12678;51.336;12.406;2023-06-10T06:17:53;23.60;99.90
24518;DHT22;12678;51.336;12.406;2023-06-10T06:20:22;23.20;99.90
24518;DHT22;12678;51.336;12.406;2023-06-10T06:22:47;22.90;99.90
24518;DHT22;12678;51.336;12.406;2023-06-10T06:25:13;22.60;99.90
24518;DHT22;12678;51.336;12.406;2023-06-10T06:27:39;22.30;99.90
24518;DHT22;12678;51.336;12.406;2023-06-10T06:30:05;22.20;99.90
24518;DHT22;12678;51.336;12.406;2023-06-10T06:32:31;22.10;99.90
24518;DHT22;12678;51.336;12.406;2023-06-10T06:34:57;21.90;99.90
24518;DHT22;12678;51.336;12.406;2023-06-10T06:37:26;22.00;99.90
24518;DHT22;12678;51.336;12.406;2023-06-10T06:39:52;21.90;99.90
24518;DHT22;12678;51.336;12.406;2023-06-10T06:42:19;21.80;99.90
24518;DHT22;12678;51.336;12.406;2023-06-10T06:44:45;22.00;99.90
24518;DHT22;12678;51.336;12.406;2023-06-10T06:47:11;22.10;99.90
24518;DHT22;12678;51.336;12.406;2023-06-10T06:49:37;22.20;99.90
24518;DHT22;12678;51.336;12.406;2023-06-10T06:52:03;22.10;99.90
24518;DHT22;12678;51.336;12.406;2023-06-10T06:54:28;22.30;99.90
24518;DHT22;12678;51.336;12.406;2023-06-10T06:56:54;22.60;99.90
24518;DHT22;12678;51.336;12.406;2023-06-10T06:59:20;23.40;99.90
24518;DHT22;12678;51.336;12.406;2023-06-10T07:01:46;24.00;99.90
24518;DHT22;12678;51.336;12.406;2023-06-10T07:04:15;24.50;99.90
24518;DHT22;12678;51.336;12.406;2023-06-10T07:06:41;25.10;99.90
24518;DHT22;12678;51.336;12.406;2023-06-10T07:09:07;25.70;99.90
24518;DHT22;12678;51.336;12.406;2023-06-10T07:11:36;26.00;99.90
24518;DHT22;12678;51.336;12.406;2023-06-10T07:14:02;26.20;99.90
24518;DHT22;12678;51.336;12.406;2023-06-10T07:16:27;26.40;99.90
24518;DHT22;12678;51.336;12.406;2023-06-10T07:18:53;26.50;99.70
24518;DHT22;12678;51.336;12.406;2023-06-10T07:21:20;26.50;99.40
24518;DHT22;12678;51.336;12.406;2023-06-10T07:23:46;26.50;99.20
24518;DHT22;12678;51.336;12.406;2023-06-10T07:26:11;26.70;98.60
24518;DHT22;12678;51.336;12.406;2023-06-10T07:28:39;26.70;98.30
24518;DHT22;12678;51.336;12.406;2023-06-10T07:31:05;26.50;98.40
24518;DHT22;12678;51.336;12.406;2023-06-10T07:33:31;26.30;98.40
24518;DHT22;12678;51.336;12.406;2023-06-10T07:35:56;26.00;99.20
24518;DHT22;12678;51.336;12.406;2023-06-10T07:38:22;26.10;99.10
24518;DHT22;12678;51.336;12.406;2023-06-10T07:40:47;26.00;99.30
24518;DHT22;12678;51.336;12.406;2023-06-10T07:43:13;26.10;99.20
24518;DHT22;12678;51.336;12.406;2023-06-10T07:45:42;26.20;98.80
24518;DHT22;12678;51.336;12.406;2023-06-10T07:48:08;25.80;99.40
24518;DHT22;12678;51.336;12.406;2023-06-10T07:50:34;25.90;99.50
24518;DHT22;12678;51.336;12.406;2023-06-10T07:52:59;25.70;99.90
24518;DHT22;12678;51.336;12.406;2023-06-10T07:55:25;25.50;99.90
24518;DHT22;12678;51.336;12.406;2023-06-10T07:57:54;25.00;99.90
24518;DHT22;12678;51.336;12.406;2023-06-10T08:00:20;24.90;99.90
24518;DHT22;12678;51.336;12.406;2023-06-10T08:02:46;24.90;99.90
24518;DHT22;12678;51.336;12.406;2023-06-10T08:05:11;25.00;99.90
24518;DHT22;12678;51.336;12.406;2023-06-10T08:07:37;25.20;99.90
24518;DHT22;12678;51.336;12.406;2023-06-10T08:10:04;25.60;99.90
24518;DHT22;12678;51.336;12.406;2023-06-10T08:12:31;25.80;99.90
24518;DHT22;12678;51.336;12.406;2023-06-10T08:14:57;26.00;99.90
24518;DHT22;12678;51.336;12.406;2023-06-10T08:17:22;26.40;99.40
24518;DHT22;12678;51.336;12.406;2023-06-10T08:19:48;26.70;98.80
24518;DHT22;12678;51.336;12.406;2023-06-10T08:22:14;27.10;97.90
24518;DHT22;12678;51.336;12.406;2023-06-10T08:24:40;27.30;97.90
24518;DHT22;12678;51.336;12.406;2023-06-10T08:27:05;27.40;97.30
24518;DHT22;12678;51.336;12.406;2023-06-10T08:29:31;27.30;97.40
24518;DHT22;12678;51.336;12.406;2023-06-10T08:31:57;27.40;97.10
24518;DHT22;12678;51.336;12.406;2023-06-10T08:34:23;27.40;96.90
24518;DHT22;12678;51.336;12.406;2023-06-10T08:36:49;27.30;97.20
24518;DHT22;12678;51.336;12.406;2023-06-10T08:39:19;27.60;96.60
24518;DHT22;12678;51.336;12.406;2023-06-10T08:41:51;27.50;96.70
24518;DHT22;12678;51.336;12.406;2023-06-10T08:44:29;27.70;96.50
24518;DHT22;12678;51.336;12.406;2023-06-10T08:46:58;27.90;96.10
24518;DHT22;12678;51.336;12.406;2023-06-10T08:49:26;28.00;95.70
24518;DHT22;12678;51.336;12.406;2023-06-10T08:51:56;27.90;95.70
24518;DHT22;12678;51.336;12.406;2023-06-10T08:54:27;27.70;95.90
24518;DHT22;12678;51.336;12.406;2023-06-10T08:56:55;27.80;95.80
24518;DHT22;12678;51.336;12.406;2023-06-10T08:59:21;27.70;96.10
24518;DHT22;12678;51.336;12.406;2023-06-10T09:01:47;27.90;95.80
24518;DHT22;12678;51.336;12.406;2023-06-10T09:04:13;28.10;95.30
24518;DHT22;12678;51.336;12.406;2023-06-10T09:06:40;28.00;94.90
24518;DHT22;12678;51.336;12.406;2023-06-10T09:09:06;27.90;95.20
24518;DHT22;12678;51.336;12.406;2023-06-10T09:11:33;27.80;95.40
24518;DHT22;12678;51.336;12.406;2023-06-10T09:13:58;27.80;95.20
24518;DHT22;12678;51.336;12.406;2023-06-10T09:16:27;27.90;95.40
24518;DHT22;12678;51.336;12.406;2023-06-10T09:18:52;28.10;94.30
24518;DHT22;12678;51.336;12.406;2023-06-10T09:21:24;28.10;94.80
24518;DHT22;12678;51.336;12.406;2023-06-10T09:23:50;27.80;94.70
24518;DHT22;12678;51.336;12.406;2023-06-10T09:26:16;27.50;95.80
24518;DHT22;12678;51.336;12.406;2023-06-10T09:28:49;27.40;95.80
24518;DHT22;12678;51.336;12.406;2023-06-10T09:31:17;27.40;96.10
24518;DHT22;12678;51.336;12.406;2023-06-10T09:33:47;27.40;95.60
24518;DHT22;12678;51.336;12.406;2023-06-10T09:36:22;27.20;95.70
24518;DHT22;12678;51.336;12.406;2023-06-10T09:38:49;27.40;95.90
24518;DHT22;12678;51.336;12.406;2023-06-10T09:41:16;27.60;95.40
24518;DHT22;12678;51.336;12.406;2023-06-10T09:43:43;27.20;95.70
24518;DHT22;12678;51.336;12.406;2023-06-10T09:46:19;27.10;96.00
24518;DHT22;12678;51.336;12.406;2023-06-10T09:48:46;27.50;96.10
24518;DHT22;12678;51.336;12.406;2023-06-10T09:51:13;27.80;94.80
24518;DHT22;12678;51.336;12.406;2023-06-10T09:53:39;27.30;95.50
24518;DHT22;12678;51.336;12.406;2023-06-10T09:56:05;27.40;95.70
24518;DHT22;12678;51.336;12.406;2023-06-10T09:58:40;27.50;95.40
24518;DHT22;12678;51.336;12.406;2023-06-10T10:01:09;27.80;94.90
24518;DHT22;12678;51.336;12.406;2023-06-10T10:03:43;27.30;95.10
24518;DHT22;12678;51.336;12.406;2023-06-10T10:06:09;27.10;95.30
24518;DHT22;12678;51.336;12.406;2023-06-10T10:08:35;27.10;95.70
24518;DHT22;12678;51.336;12.406;2023-06-10T10:11:01;27.20;96.30
24518;DHT22;12678;51.336;12.406;2023-06-10T10:13:28;27.60;95.70
24518;DHT22;12678;51.336;12.406;2023-06-10T10:15:56;27.90;95.00
24518;DHT22;12678;51.336;12.406;2023-06-10T10:18:25;27.60;95.40
24518;DHT22;12678;51.336;12.406;2023-06-10T10:20:56;27.40;95.30
24518;DHT22;12678;51.336;12.406;2023-06-10T10:23:29;27.60;95.10
24518;DHT22;12678;51.336;12.406;2023-06-10T10:25:58;27.80;94.70
24518;DHT22;12678;51.336;12.406;2023-06-10T10:28:34;27.70;94.90
24518;DHT22;12678;51.336;12.406;2023-06-10T10:31:08;27.60;95.40
24518;DHT22;12678;51.336;12.406;2023-06-10T10:33:51;27.70;95.10
24518;DHT22;12678;51.336;12.406;2023-06-10T10:36:21;27.80;95.00
24518;DHT22;12678;51.336;12.406;2023-06-10T10:38:48;27.50;95.30
24518;DHT22;12678;51.336;12.406;2023-06-10T10:41:17;27.80;94.20
24518;DHT22;12678;51.336;12.406;2023-06-10T10:43:44;27.80;94.30
24518;DHT22;12678;51.336;12.406;2023-06-10T10:46:15;27.40;95.30
24518;DHT22;12678;51.336;12.406;2023-06-10T10:48:41;27.70;94.60
24518;DHT22;12678;51.336;12.406;2023-06-10T10:51:08;27.80;94.30
24518;DHT22;12678;51.336;12.406;2023-06-10T10:53:37;27.70;94.10
24518;DHT22;12678;51.336;12.406;2023-06-10T10:56:08;27.80;94.50
24518;DHT22;12678;51.336;12.406;2023-06-10T10:58:37;27.80;93.70
24518;DHT22;12678;51.336;12.406;2023-06-10T11:01:14;28.00;94.00
24518;DHT22;12678;51.336;12.406;2023-06-10T11:03:46;28.00;92.80
24518;DHT22;12678;51.336;12.406;2023-06-10T11:06:16;28.20;92.60
24518;DHT22;12678;51.336;12.406;2023-06-10T11:11:24;27.90;91.30
24518;DHT22;12678;51.336;12.406;2023-06-10T11:16:39;28.20;90.30
24518;DHT22;12678;51.336;12.406;2023-06-10T11:19:05;28.40;90.50
24518;DHT22;12678;51.336;12.406;2023-06-10T11:21:31;28.60;89.40
24518;DHT22;12678;51.336;12.406;2023-06-10T11:23:58;28.40;89.20
24518;DHT22;12678;51.336;12.406;2023-06-10T11:31:46;28.60;89.50
24518;DHT22;12678;51.336;12.406;2023-06-10T11:34:14;28.50;89.10
24518;DHT22;12678;51.336;12.406;2023-06-10T11:36:43;28.40;90.30
24518;DHT22;12678;51.336;12.406;2023-06-10T11:39:11;28.80;88.90
24518;DHT22;12678;51.336;12.406;2023-06-10T11:41:38;28.70;85.50
24518;DHT22;12678;51.336;12.406;2023-06-10T11:44:12;28.50;86.80
24518;DHT22;12678;51.336;12.406;2023-06-10T11:46:37;28.60;88.80
24518;DHT22;12678;51.336;12.406;2023-06-10T11:49:04;28.30;90.00
24518;DHT22;12678;51.336;12.406;2023-06-10T11:51:35;28.20;90.30
24518;DHT22;12678;51.336;12.406;2023-06-10T11:54:01;28.20;90.40
24518;DHT22;12678;51.336;12.406;2023-06-10T11:56:28;28.20;90.40
24518;DHT22;12678;51.336;12.406;2023-06-10T11:59:02;28.40;90.20
24518;DHT22;12678;51.336;12.406;2023-06-10T12:01:38;28.60;89.40
24518;DHT22;12678;51.336;12.406;2023-06-10T12:04:08;28.80;86.60
24518;DHT22;12678;51.336;12.406;2023-06-10T12:06:46;28.50;86.20
24518;DHT22;12678;51.336;12.406;2023-06-10T12:09:22;28.40;84.40
24518;DHT22;12678;51.336;12.406;2023-06-10T12:12:04;28.40;87.20
24518;DHT22;12678;51.336;12.406;2023-06-10T12:14:59;28.20;87.80
24518;DHT22;12678;51.336;12.406;2023-06-10T12:19:57;27.70;89.10
24518;DHT22;12678;51.336;12.406;2023-06-10T12:22:23;27.70;89.30
24518;DHT22;12678;51.336;12.406;2023-06-10T12:25:01;27.70;88.50
24518;DHT22;12678;51.336;12.406;2023-06-10T12:27:28;27.80;88.00
24518;DHT22;12678;51.336;12.406;2023-06-10T12:29:56;27.90;88.00
24518;DHT22;12678;51.336;12.406;2023-06-10T12:32:39;28.10;88.60
24518;DHT22;12678;51.336;12.406;2023-06-10T12:35:06;28.40;87.00
24518;DHT22;12678;51.336;12.406;2023-06-10T12:37:32;28.30;88.10
24518;DHT22;12678;51.336;12.406;2023-06-10T12:40:03;28.30;82.40
24518;DHT22;12678;51.336;12.406;2023-06-10T12:42:29;28.60;80.10
24518;DHT22;12678;51.336;12.406;2023-06-10T12:44:57;28.70;79.80
24518;DHT22;12678;51.336;12.406;2023-06-10T12:47:36;28.70;78.60
24518;DHT22;12678;51.336;12.406;2023-06-10T12:50:04;28.50;78.40
24518;DHT22;12678;51.336;12.406;2023-06-10T12:52:30;28.30;78.90
24518;DHT22;12678;51.336;12.406;2023-06-10T12:54:56;27.90;81.70
24518;DHT22;12678;51.336;12.406;2023-06-10T12:57:22;27.30;79.00
24518;DHT22;12678;51.336;12.406;2023-06-10T12:59:48;26.70;86.00
24518;DHT22;12678;51.336;12.406;2023-06-10T13:02:19;26.60;87.30
24518;DHT22;12678;51.336;12.406;2023-06-10T13:04:46;26.50;87.10
24518;DHT22;12678;51.336;12.406;2023-06-10T13:07:12;26.00;90.20
24518;DHT22;12678;51.336;12.406;2023-06-10T13:09:38;25.70;91.60
24518;DHT22;12678;51.336;12.406;2023-06-10T13:12:05;25.50;92.70
24518;DHT22;12678;51.336;12.406;2023-06-10T13:14:31;25.40;93.10
24518;DHT22;12678;51.336;12.406;2023-06-10T13:16:56;25.40;93.30
24518;DHT22;12678;51.336;12.406;2023-06-10T13:19:22;25.50;93.00
24518;DHT22;12678;51.336;12.406;2023-06-10T13:21:48;25.60;92.10
24518;DHT22;12678;51.336;12.406;2023-06-10T13:24:14;25.40;91.20
24518;DHT22;12678;51.336;12.406;2023-06-10T13:26:40;25.40;91.70
24518;DHT22;12678;51.336;12.406;2023-06-10T13:29:06;25.40;92.00
24518;DHT22;12678;51.336;12.406;2023-06-10T13:31:36;25.20;91.30
24518;DHT22;12678;51.336;12.406;2023-06-10T13:34:02;25.30;91.30
24518;DHT22;12678;51.336;12.406;2023-06-10T13:36:28;25.20;90.10
24518;DHT22;12678;51.336;12.406;2023-06-10T13:38:54;25.10;89.40
24518;DHT22;12678;51.336;12.406;2023-06-10T13:41:19;25.10;88.30
24518;DHT22;12678;51.336;12.406;2023-06-10T13:43:45;25.10;87.10
24518;DHT22;12678;51.336;12.406;2023-06-10T13:46:11;25.10;86.50
24518;DHT22;12678;51.336;12.406;2023-06-10T13:48:36;25.00;86.80
24518;DHT22;12678;51.336;12.406;2023-06-10T13:51:02;25.10;88.00
24518;DHT22;12678;51.336;12.406;2023-06-10T13:53:28;25.00;87.00
24518;DHT22;12678;51.336;12.406;2023-06-10T13:55:53;25.10;88.10
24518;DHT22;12678;51.336;12.406;2023-06-10T13:58:19;25.10;86.80
24518;DHT22;12678;51.336;12.406;2023-06-10T14:00:44;25.20;87.70
24518;DHT22;12678;51.336;12.406;2023-06-10T14:03:10;25.20;87.20
24518;DHT22;12678;51.336;12.406;2023-06-10T14:05:36;25.30;86.10
24518;DHT22;12678;51.336;12.406;2023-06-10T14:08:02;25.30;82.80
24518;DHT22;12678;51.336;12.406;2023-06-10T14:10:28;25.30;81.40
24518;DHT22;12678;51.336;12.406;2023-06-10T14:12:54;25.20;79.10
24518;DHT22;12678;51.336;12.406;2023-06-10T14:15:20;25.30;81.10
24518;DHT22;12678;51.336;12.406;2023-06-10T14:17:45;25.30;77.90
24518;DHT22;12678;51.336;12.406;2023-06-10T14:20:11;25.40;79.70
24518;DHT22;12678;51.336;12.406;2023-06-10T14:22:37;25.40;79.80
24518;DHT22;12678;51.336;12.406;2023-06-10T14:25:04;25.50;79.30
24518;DHT22;12678;51.336;12.406;2023-06-10T14:27:30;25.50;78.60
24518;DHT22;12678;51.336;12.406;2023-06-10T14:29:56;25.50;77.30
24518;DHT22;12678;51.336;12.406;2023-06-10T14:32:21;25.50;77.00
24518;DHT22;12678;51.336;12.406;2023-06-10T14:34:47;25.60;77.90
24518;DHT22;12678;51.336;12.406;2023-06-10T14:37:13;25.60;76.20
24518;DHT22;12678;51.336;12.406;2023-06-10T14:39:39;25.60;76.80
24518;DHT22;12678;51.336;12.406;2023-06-10T14:42:05;25.70;74.20
24518;DHT22;12678;51.336;12.406;2023-06-10T14:44:31;25.80;74.50
24518;DHT22;12678;51.336;12.406;2023-06-10T14:46:57;25.80;75.40
24518;DHT22;12678;51.336;12.406;2023-06-10T14:49:22;25.80;74.30
24518;DHT22;12678;51.336;12.406;2023-06-10T14:51:48;25.80;74.40
24518;DHT22;12678;51.336;12.406;2023-06-10T14:54:15;25.70;73.80
24518;DHT22;12678;51.336;12.406;2023-06-10T14:56:41;25.60;72.70
24518;DHT22;12678;51.336;12.406;2023-06-10T14:59:06;25.60;80.20
24518;DHT22;12678;51.336;12.406;2023-06-10T15:01:32;25.40;86.10
24518;DHT22;12678;51.336;12.406;2023-06-10T15:03:58;25.30;88.80
24518;DHT22;12678;51.336;12.406;2023-06-10T15:06:24;25.10;90.20
24518;DHT22;12678;51.336;12.406;2023-06-10T15:08:49;25.10;90.70
24518;DHT22;12678;51.336;12.406;2023-06-10T15:11:15;25.10;90.90
24518;DHT22;12678;51.336;12.406;2023-06-10T15:13:41;25.10;90.70
24518;DHT22;12678;51.336;12.406;2023-06-10T15:16:07;25.10;91.10
24518;DHT22;12678;51.336;12.406;2023-06-10T15:18:33;25.10;91.40
24518;DHT22;12678;51.336;12.406;2023-06-10T15:20:59;25.10;91.90
24518;DHT22;12678;51.336;12.406;2023-06-10T15:23:24;25.00;92.30
24518;DHT22;12678;51.336;12.406;2023-06-10T15:25:50;25.00;92.50
24518;DHT22;12678;51.336;12.406;2023-06-10T15:28:16;25.10;92.50